sensor_id;sensor_type;location;lat;lon;timestamp;pressure;altitude;pressure_sealevel;temperature;humidity
68656;BME280;55638;51.122;13.606;2023-06-04T00:00:38;100560.03;;;7.47;30.60
68656;BME280;55638;51.122;13.606;2023-06-04T00:02:10;100551.31;;;7.43;30.76
68656;BME280;55638;51.122;13.606;2023-06-04T00:03:42;100551.53;;;7.40;30.84
68656;BME280;55638;51.122;13.606;2023-06-04T00:05:14;100552.69;;;7.36;30.34
68656;BME280;55638;51.122;13.606;2023-06-04T00:06:46;100552.88;;;7.33;30.44
68656;BME280;55638;51.122;13.606;2023-06-04T00:08:18;100552.22;;;7.29;30.13
68656;BME280;55638;51.122;13.606;2023-06-04T00:09:49;100540.91;;;7.24;30.24
68656;BME280;55638;51.122;13.606;2023-06-04T00:11:21;100551.94;;;7.20;30.39
68656;BME280;55638;51.122;13.606;2023-06-04T00:12:53;100546.00;;;7.14;30.72
68656;BME280;55638;51.122;13.606;2023-06-04T00:14:25;100540.94;;;7.10;30.83
68656;BME280;55638;51.122;13.606;2023-06-04T00:15:57;100549.25;;;7.05;31.11
68656;BME280;55638;51.122;13.606;2023-06-04T00:17:29;100545.91;;;7.02;30.41
68656;BME280;55638;51.122;13.606;2023-06-04T00:19:01;100546.22;;;6.97;30.50
68656;BME280;55638;51.122;13.606;2023-06-04T00:20:33;100534.84;;;6.93;30.53
68656;BME280;55638;51.122;13.606;2023-06-04T00:22:05;100544.97;;;6.88;30.86
68656;BME280;55638;51.122;13.606;2023-06-04T00:23:37;100542.56;;;6.84;31.45
68656;BME280;55638;51.122;13.606;2023-06-04T00:25:09;100541.97;;;6.79;31.26
68656;BME280;55638;51.122;13.606;2023-06-04T00:26:41;100546.66;;;6.75;30.33
68656;BME280;55638;51.122;13.606;2023-06-04T00:28:13;100540.63;;;6.72;30.04
68656;BME280;55638;51.122;13.606;2023-06-04T00:29:45;100542.53;;;6.69;30.23
68656;BME280;55638;51.122;13.606;2023-06-04T00:31:17;100546.38;;;6.65;30.10
68656;BME280;55638;51.122;13.606;2023-06-04T00:32:49;100536.81;;;6.61;30.78
68656;BME280;55638;51.122;13.606;2023-06-04T00:34:21;100542.34;;;6.58;30.63
68656;BME280;55638;51.122;13.606;2023-06-04T00:35:53;100540.72;;;6.56;30.48
68656;BME280;55638;51.122;13.606;2023-06-04T00:37:28;100538.22;;;6.53;30.40
68656;BME280;55638;51.122;13.606;2023-06-04T00:39:00;100548.19;;;6.51;30.56
68656;BME280;55638;51.122;13.606;2023-06-04T00:40:32;100536.69;;;6.49;30.27
68656;BME280;55638;51.122;13.606;2023-06-04T00:42:04;100538.69;;;6.45;30.50
68656;BME280;55638;51.122;13.606;2023-06-04T00:43:36;100526.28;;;6.44;30.53
68656;BME280;55638;51.122;13.606;2023-06-04T00:45:08;100533.53;;;6.42;30.85
68656;BME280;55638;51.122;13.606;2023-06-04T00:46:41;100535.41;;;6.40;30.79
68656;BME280;55638;51.122;13.606;2023-06-04T00:48:17;100533.72;;;6.39;30.57
68656;BME280;55638;51.122;13.606;2023-06-04T00:49:48;100532.94;;;6.37;30.66
68656;BME280;55638;51.122;13.606;2023-06-04T00:51:21;100533.91;;;6.36;30.63
68656;BME280;55638;51.122;13.606;2023-06-04T00:52:53;100529.50;;;6.35;30.99
68656;BME280;55638;51.122;13.606;2023-06-04T00:54:25;100520.69;;;6.33;31.04
68656;BME280;55638;51.122;13.606;2023-06-04T00:55:57;100527.88;;;6.32;30.96
68656;BME280;55638;51.122;13.606;2023-06-04T00:57:29;100518.13;;;6.31;30.96
68656;BME280;55638;51.122;13.606;2023-06-04T00:59:01;100515.44;;;6.31;31.09
68656;BME280;55638;51.122;13.606;2023-06-04T01:00:33;100519.91;;;6.31;31.11
68656;BME280;55638;51.122;13.606;2023-06-04T01:03:38;100514.56;;;6.31;31.30
68656;BME280;55638;51.122;13.606;2023-06-04T01:06:49;100518.19;;;6.30;31.11
68656;BME280;55638;51.122;13.606;2023-06-04T01:08:22;100518.13;;;6.31;31.08
68656;BME280;55638;51.122;13.606;2023-06-04T01:09:54;100519.06;;;6.30;31.50
68656;BME280;55638;51.122;13.606;2023-06-04T01:11:33;100518.31;;;6.28;31.50
68656;BME280;55638;51.122;13.606;2023-06-04T01:13:06;100520.09;;;6.28;31.56
68656;BME280;55638;51.122;13.606;2023-06-04T01:14:38;100520.09;;;6.28;31.76
68656;BME280;55638;51.122;13.606;2023-06-04T01:16:09;100520.19;;;6.26;32.30
68656;BME280;55638;51.122;13.606;2023-06-04T01:17:44;100514.94;;;6.25;32.30
68656;BME280;55638;51.122;13.606;2023-06-04T01:20:57;100517.72;;;6.23;31.69
68656;BME280;55638;51.122;13.606;2023-06-04T01:22:37;100515.13;;;6.21;31.76
68656;BME280;55638;51.122;13.606;2023-06-04T01:24:09;100520.69;;;6.18;31.69
68656;BME280;55638;51.122;13.606;2023-06-04T01:25:41;100511.00;;;6.16;32.12
68656;BME280;55638;51.122;13.606;2023-06-04T01:27:15;100529.81;;;6.14;31.82
68656;BME280;55638;51.122;13.606;2023-06-04T01:28:47;100523.78;;;6.11;32.01
68656;BME280;55638;51.122;13.606;2023-06-04T01:30:22;100520.34;;;6.09;32.58
68656;BME280;55638;51.122;13.606;2023-06-04T01:31:55;100521.41;;;6.06;32.50
68656;BME280;55638;51.122;13.606;2023-06-04T01:33:27;100520.63;;;6.04;32.14
68656;BME280;55638;51.122;13.606;2023-06-04T01:34:58;100520.72;;;6.03;31.84
68656;BME280;55638;51.122;13.606;2023-06-04T01:36:31;100523.47;;;6.01;31.66
68656;BME280;55638;51.122;13.606;2023-06-04T01:38:04;100522.72;;;5.99;31.91
68656;BME280;55638;51.122;13.606;2023-06-04T01:39:36;100516.69;;;5.95;31.95
68656;BME280;55638;51.122;13.606;2023-06-04T01:41:08;100522.97;;;5.94;31.98
68656;BME280;55638;51.122;13.606;2023-06-04T01:42:40;100521.34;;;5.92;32.27
68656;BME280;55638;51.122;13.606;2023-06-04T01:44:12;100518.88;;;5.89;32.43
68656;BME280;55638;51.122;13.606;2023-06-04T01:45:44;100519.03;;;5.86;32.14
68656;BME280;55638;51.122;13.606;2023-06-04T01:47:16;100528.00;;;5.85;32.22
68656;BME280;55638;51.122;13.606;2023-06-04T01:48:47;100523.72;;;5.82;32.21
68656;BME280;55638;51.122;13.606;2023-06-04T01:50:20;100522.81;;;5.82;32.18
68656;BME280;55638;51.122;13.606;2023-06-04T01:51:52;100523.00;;;5.79;32.30
68656;BME280;55638;51.122;13.606;2023-06-04T01:53:24;100522.25;;;5.76;32.44
68656;BME280;55638;51.122;13.606;2023-06-04T01:54:56;100523.28;;;5.74;32.79
68656;BME280;55638;51.122;13.606;2023-06-04T01:56:29;100524.31;;;5.71;33.15
68656;BME280;55638;51.122;13.606;2023-06-04T01:58:00;100529.78;;;5.70;33.79
68656;BME280;55638;51.122;13.606;2023-06-04T01:59:32;100520.97;;;5.68;32.97
68656;BME280;55638;51.122;13.606;2023-06-04T02:01:05;100520.28;;;5.64;32.92
68656;BME280;55638;51.122;13.606;2023-06-04T02:02:39;100521.31;;;5.62;33.74
68656;BME280;55638;51.122;13.606;2023-06-04T02:04:12;100525.03;;;5.59;33.48
68656;BME280;55638;51.122;13.606;2023-06-04T02:05:44;100524.25;;;5.57;32.99
68656;BME280;55638;51.122;13.606;2023-06-04T02:07:18;100519.94;;;5.55;32.72
68656;BME280;55638;51.122;13.606;2023-06-04T02:08:52;100525.41;;;5.53;32.70
68656;BME280;55638;51.122;13.606;2023-06-04T02:10:25;100528.16;;;5.51;32.84
68656;BME280;55638;51.122;13.606;2023-06-04T02:11:57;100523.81;;;5.49;32.87
68656;BME280;55638;51.122;13.606;2023-06-04T02:13:29;100524.88;;;5.46;32.99
68656;BME280;55638;51.122;13.606;2023-06-04T02:15:01;100529.44;;;5.44;33.14
68656;BME280;55638;51.122;13.606;2023-06-04T02:16:32;100529.53;;;5.43;33.12
68656;BME280;55638;51.122;13.606;2023-06-04T02:18:11;100528.84;;;5.39;35.04
68656;BME280;55638;51.122;13.606;2023-06-04T02:19:49;100535.25;;;5.37;34.65
68656;BME280;55638;51.122;13.606;2023-06-04T02:21:21;100535.31;;;5.35;33.96
68656;BME280;55638;51.122;13.606;2023-06-04T02:22:54;100530.13;;;5.32;33.70
68656;BME280;55638;51.122;13.606;2023-06-04T02:24:26;100535.59;;;5.31;33.30
68656;BME280;55638;51.122;13.606;2023-06-04T02:25:57;100534.78;;;5.28;33.58
68656;BME280;55638;51.122;13.606;2023-06-04T02:27:29;100531.34;;;5.26;33.65
68656;BME280;55638;51.122;13.606;2023-06-04T02:29:01;100536.06;;;5.21;33.94
68656;BME280;55638;51.122;13.606;2023-06-04T02:30:33;100539.66;;;5.20;33.91
68656;BME280;55638;51.122;13.606;2023-06-04T02:32:05;100537.19;;;5.17;33.81
68656;BME280;55638;51.122;13.606;2023-06-04T02:33:37;100532.75;;;5.16;34.24
68656;BME280;55638;51.122;13.606;2023-06-04T02:35:09;100535.59;;;5.13;35.05
68656;BME280;55638;51.122;13.606;2023-06-04T02:36:41;100531.28;;;5.11;35.16
68656;BME280;55638;51.122;13.606;2023-06-04T02:38:22;100535.94;;;5.07;35.85
68656;BME280;55638;51.122;13.606;2023-06-04T02:39:53;100538.78;;;5.04;35.29
68656;BME280;55638;51.122;13.606;2023-06-04T02:41:25;100535.34;;;5.02;36.34
68656;BME280;55638;51.122;13.606;2023-06-04T02:42:57;100537.31;;;4.98;36.65
68656;BME280;55638;51.122;13.606;2023-06-04T02:44:29;100535.75;;;4.94;35.61
68656;BME280;55638;51.122;13.606;2023-06-04T02:46:02;100534.13;;;4.92;34.85
68656;BME280;55638;51.122;13.606;2023-06-04T02:47:34;100535.22;;;4.88;34.25
68656;BME280;55638;51.122;13.606;2023-06-04T02:49:06;100544.34;;;4.83;34.85
68656;BME280;55638;51.122;13.606;2023-06-04T02:50:38;100532.03;;;4.81;35.35
68656;BME280;55638;51.122;13.606;2023-06-04T02:52:13;100534.00;;;4.77;34.53
68656;BME280;55638;51.122;13.606;2023-06-04T02:53:45;100538.56;;;4.75;34.73
68656;BME280;55638;51.122;13.606;2023-06-04T02:55:17;100542.28;;;4.73;34.95
68656;BME280;55638;51.122;13.606;2023-06-04T02:56:49;100546.91;;;4.69;34.76
68656;BME280;55638;51.122;13.606;2023-06-04T02:58:21;100541.72;;;4.66;33.98
68656;BME280;55638;51.122;13.606;2023-06-04T02:59:56;100541.81;;;4.65;34.23
68656;BME280;55638;51.122;13.606;2023-06-04T03:01:28;100539.28;;;4.62;34.41
68656;BME280;55638;51.122;13.606;2023-06-04T03:03:00;100542.13;;;4.58;34.74
68656;BME280;55638;51.122;13.606;2023-06-04T03:04:34;100542.22;;;4.57;34.85
68656;BME280;55638;51.122;13.606;2023-06-04T03:06:06;100543.25;;;4.54;34.55
68656;BME280;55638;51.122;13.606;2023-06-04T03:07:39;100540.66;;;4.53;34.61
68656;BME280;55638;51.122;13.606;2023-06-04T03:09:12;100547.88;;;4.51;34.46
68656;BME280;55638;51.122;13.606;2023-06-04T03:10:44;100544.34;;;4.50;34.30
68656;BME280;55638;51.122;13.606;2023-06-04T03:12:17;100546.16;;;4.50;34.31
68656;BME280;55638;51.122;13.606;2023-06-04T03:13:49;100543.50;;;4.50;34.18
68656;BME280;55638;51.122;13.606;2023-06-04T03:15:20;100542.69;;;4.48;34.67
68656;BME280;55638;51.122;13.606;2023-06-04T03:16:52;100548.91;;;4.48;35.54
68656;BME280;55638;51.122;13.606;2023-06-04T03:18:24;100540.97;;;4.47;35.38
68656;BME280;55638;51.122;13.606;2023-06-04T03:19:57;100549.00;;;4.47;35.82
68656;BME280;55638;51.122;13.606;2023-06-04T03:21:29;100549.84;;;4.47;36.08
68656;BME280;55638;51.122;13.606;2023-06-04T03:23:01;100553.38;;;4.48;36.66
68656;BME280;55638;51.122;13.606;2023-06-04T03:24:34;100550.72;;;4.48;36.47
68656;BME280;55638;51.122;13.606;2023-06-04T03:26:06;100556.03;;;4.48;36.96
68656;BME280;55638;51.122;13.606;2023-06-04T03:27:38;100556.91;;;4.48;36.29
68656;BME280;55638;51.122;13.606;2023-06-04T03:29:10;100558.66;;;4.49;36.29
68656;BME280;55638;51.122;13.606;2023-06-04T03:30:42;100560.44;;;4.49;36.51
68656;BME280;55638;51.122;13.606;2023-06-04T03:32:14;100560.44;;;4.49;36.29
68656;BME280;55638;51.122;13.606;2023-06-04T03:33:47;100561.31;;;4.49;36.34
68656;BME280;55638;51.122;13.606;2023-06-04T03:35:19;100555.97;;;4.49;36.37
68656;BME280;55638;51.122;13.606;2023-06-04T03:36:51;100564.75;;;4.51;35.89
68656;BME280;55638;51.122;13.606;2023-06-04T03:38:23;100562.88;;;4.53;35.35
68656;BME280;55638;51.122;13.606;2023-06-04T03:39:55;100572.69;;;4.53;35.60
68656;BME280;55638;51.122;13.606;2023-06-04T03:41:27;100566.41;;;4.54;36.12
68656;BME280;55638;51.122;13.606;2023-06-04T03:42:59;100565.47;;;4.55;37.61
68656;BME280;55638;51.122;13.606;2023-06-04T03:44:34;100564.59;;;4.54;37.56
68656;BME280;55638;51.122;13.606;2023-06-04T03:46:07;100561.88;;;4.56;37.47
68656;BME280;55638;51.122;13.606;2023-06-04T03:47:40;100563.56;;;4.57;36.89
68656;BME280;55638;51.122;13.606;2023-06-04T03:49:13;100564.44;;;4.57;37.54
68656;BME280;55638;51.122;13.606;2023-06-04T03:50:46;100564.38;;;4.59;36.85
68656;BME280;55638;51.122;13.606;2023-06-04T03:52:19;100570.47;;;4.61;36.50
68656;BME280;55638;51.122;13.606;2023-06-04T03:53:52;100566.09;;;4.60;36.71
68656;BME280;55638;51.122;13.606;2023-06-04T03:55:24;100573.16;;;4.61;37.46
68656;BME280;55638;51.122;13.606;2023-06-04T03:56:56;100570.47;;;4.61;37.14
68656;BME280;55638;51.122;13.606;2023-06-04T03:58:28;100569.47;;;4.64;36.89
68656;BME280;55638;51.122;13.606;2023-06-04T04:00:01;100573.00;;;4.64;36.71
68656;BME280;55638;51.122;13.606;2023-06-04T04:01:43;100573.00;;;4.64;36.93
68656;BME280;55638;51.122;13.606;2023-06-04T04:03:15;100573.78;;;4.66;37.15
68656;BME280;55638;51.122;13.606;2023-06-04T04:04:48;100576.34;;;4.68;36.59
68656;BME280;55638;51.122;13.606;2023-06-04T04:06:21;100575.44;;;4.69;36.49
68656;BME280;55638;51.122;13.606;2023-06-04T04:07:53;100578.88;;;4.71;36.26
68656;BME280;55638;51.122;13.606;2023-06-04T04:09:29;100578.81;;;4.72;36.39
68656;BME280;55638;51.122;13.606;2023-06-04T04:11:01;100571.56;;;4.74;36.73
68656;BME280;55638;51.122;13.606;2023-06-04T04:12:33;100581.31;;;4.75;36.92
68656;BME280;55638;51.122;13.606;2023-06-04T04:14:05;100577.59;;;4.78;36.92
68656;BME280;55638;51.122;13.606;2023-06-04T04:15:37;100570.38;;;4.80;36.76
68656;BME280;55638;51.122;13.606;2023-06-04T04:17:10;100577.44;;;4.81;36.56
68656;BME280;55638;51.122;13.606;2023-06-04T04:18:42;100573.72;;;4.83;37.66
68656;BME280;55638;51.122;13.606;2023-06-04T04:20:18;100572.78;;;4.84;37.94
68656;BME280;55638;51.122;13.606;2023-06-04T04:21:56;100574.44;;;4.87;38.54
68656;BME280;55638;51.122;13.606;2023-06-04T04:23:28;100588.47;;;4.91;37.82
68656;BME280;55638;51.122;13.606;2023-06-04T04:25:00;100583.06;;;4.92;37.93
68656;BME280;55638;51.122;13.606;2023-06-04T04:26:33;100583.84;;;4.94;37.77
68656;BME280;55638;51.122;13.606;2023-06-04T04:28:06;100578.44;;;4.96;37.73
68656;BME280;55638;51.122;13.606;2023-06-04T04:29:39;100588.94;;;4.99;37.48
68656;BME280;55638;51.122;13.606;2023-06-04T04:31:15;100583.44;;;5.02;37.97
68656;BME280;55638;51.122;13.606;2023-06-04T04:32:47;100577.16;;;5.03;37.51
68656;BME280;55638;51.122;13.606;2023-06-04T04:34:30;100592.16;;;5.05;37.87
68656;BME280;55638;51.122;13.606;2023-06-04T04:36:04;100580.34;;;5.10;37.57
68656;BME280;55638;51.122;13.606;2023-06-04T04:37:36;100588.28;;;5.11;37.92
68656;BME280;55638;51.122;13.606;2023-06-04T04:39:11;100581.81;;;5.15;37.73
68656;BME280;55638;51.122;13.606;2023-06-04T04:40:43;100588.72;;;5.19;38.03
68656;BME280;55638;51.122;13.606;2023-06-04T04:42:20;100589.41;;;5.23;37.69
68656;BME280;55638;51.122;13.606;2023-06-04T04:43:53;100579.38;;;5.28;37.57
68656;BME280;55638;51.122;13.606;2023-06-04T04:45:32;100585.16;;;5.36;37.62
68656;BME280;55638;51.122;13.606;2023-06-04T04:47:05;100581.91;;;5.47;37.45
68656;BME280;55638;51.122;13.606;2023-06-04T04:48:37;100583.78;;;5.61;37.71
68656;BME280;55638;51.122;13.606;2023-06-04T04:50:10;100580.06;;;5.79;37.73
68656;BME280;55638;51.122;13.606;2023-06-04T04:51:42;100574.31;;;6.01;38.17
68656;BME280;55638;51.122;13.606;2023-06-04T04:53:14;100586.09;;;6.29;38.16
68656;BME280;55638;51.122;13.606;2023-06-04T04:54:46;100584.25;;;6.59;38.46
68656;BME280;55638;51.122;13.606;2023-06-04T04:56:18;100580.47;;;6.92;38.46
68656;BME280;55638;51.122;13.606;2023-06-04T04:57:53;100576.25;;;7.31;38.75
68656;BME280;55638;51.122;13.606;2023-06-04T04:59:27;100588.81;;;7.72;38.43
68656;BME280;55638;51.122;13.606;2023-06-04T05:01:01;100583.28;;;8.15;38.33
68656;BME280;55638;51.122;13.606;2023-06-04T05:02:34;100583.19;;;8.56;38.33
68656;BME280;55638;51.122;13.606;2023-06-04T05:04:06;100575.66;;;8.99;38.29
68656;BME280;55638;51.122;13.606;2023-06-04T05:05:41;100577.75;;;9.45;38.30
68656;BME280;55638;51.122;13.606;2023-06-04T05:07:13;100577.34;;;9.88;38.12
68656;BME280;55638;51.122;13.606;2023-06-04T05:08:45;100575.78;;;10.32;38.04
68656;BME280;55638;51.122;13.606;2023-06-04T05:10:19;100578.63;;;10.77;37.93
68656;BME280;55638;51.122;13.606;2023-06-04T05:11:51;100576.94;;;11.21;37.84
68656;BME280;55638;51.122;13.606;2023-06-04T05:13:23;100578.88;;;11.64;37.68
68656;BME280;55638;51.122;13.606;2023-06-04T05:15:00;100584.16;;;12.09;37.44
68656;BME280;55638;51.122;13.606;2023-06-04T05:16:32;100578.97;;;12.49;37.33
68656;BME280;55638;51.122;13.606;2023-06-04T05:18:07;100581.53;;;12.93;37.14
68656;BME280;55638;51.122;13.606;2023-06-04T05:19:42;100580.72;;;13.33;36.96
68656;BME280;55638;51.122;13.606;2023-06-04T05:21:14;100579.13;;;13.71;36.75
68656;BME280;55638;51.122;13.606;2023-06-04T05:22:51;100583.63;;;14.10;36.38
68656;BME280;55638;51.122;13.606;2023-06-04T05:24:24;100575.09;;;14.44;35.92
68656;BME280;55638;51.122;13.606;2023-06-04T05:25:57;100576.34;;;14.79;35.71
68656;BME280;55638;51.122;13.606;2023-06-04T05:27:29;100579.22;;;15.15;35.46
68656;BME280;55638;51.122;13.606;2023-06-04T05:29:03;100575.09;;;15.48;35.36
68656;BME280;55638;51.122;13.606;2023-06-04T05:30:39;100578.78;;;15.84;35.50
68656;BME280;55638;51.122;13.606;2023-06-04T05:32:14;100577.09;;;16.19;35.42
68656;BME280;55638;51.122;13.606;2023-06-04T05:33:47;100581.00;;;16.52;35.44
68656;BME280;55638;51.122;13.606;2023-06-04T05:35:22;100582.78;;;16.87;34.73
68656;BME280;55638;51.122;13.606;2023-06-04T05:36:54;100573.13;;;17.19;34.81
68656;BME280;55638;51.122;13.606;2023-06-04T05:38:26;100575.00;;;17.53;34.74
68656;BME280;55638;51.122;13.606;2023-06-04T05:40:01;100577.66;;;17.87;34.25
68656;BME280;55638;51.122;13.606;2023-06-04T05:41:39;100580.31;;;18.21;34.18
68656;BME280;55638;51.122;13.606;2023-06-04T05:43:12;100576.56;;;18.55;33.58
68656;BME280;55638;51.122;13.606;2023-06-04T05:44:44;100577.59;;;18.87;33.75
68656;BME280;55638;51.122;13.606;2023-06-04T05:46:19;100581.28;;;19.18;33.77
68656;BME280;55638;51.122;13.606;2023-06-04T05:47:53;100579.16;;;19.45;32.74
68656;BME280;55638;51.122;13.606;2023-06-04T05:49:25;100582.47;;;19.71;33.13
68656;BME280;55638;51.122;13.606;2023-06-04T05:51:00;100582.16;;;19.98;32.55
68656;BME280;55638;51.122;13.606;2023-06-04T05:52:32;100583.88;;;20.22;32.32
68656;BME280;55638;51.122;13.606;2023-06-04T05:54:06;100585.59;;;20.46;32.29
68656;BME280;55638;51.122;13.606;2023-06-04T05:55:41;100590.84;;;20.70;31.84
68656;BME280;55638;51.122;13.606;2023-06-04T05:57:13;100591.22;;;20.90;31.80
68656;BME280;55638;51.122;13.606;2023-06-04T05:58:50;100583.31;;;21.10;30.63
68656;BME280;55638;51.122;13.606;2023-06-04T06:00:22;100582.75;;;21.29;28.89
68656;BME280;55638;51.122;13.606;2023-06-04T06:01:56;100584.09;;;21.48;29.67
68656;BME280;55638;51.122;13.606;2023-06-04T06:03:28;100585.38;;;21.67;29.61
68656;BME280;55638;51.122;13.606;2023-06-04T06:05:00;100578.44;;;21.86;29.71
68656;BME280;55638;51.122;13.606;2023-06-04T06:06:32;100589.66;;;22.06;30.43
68656;BME280;55638;51.122;13.606;2023-06-04T06:08:04;100583.75;;;22.24;29.65
68656;BME280;55638;51.122;13.606;2023-06-04T06:09:37;100585.84;;;22.43;30.42
68656;BME280;55638;51.122;13.606;2023-06-04T06:11:08;100588.78;;;22.63;30.07
68656;BME280;55638;51.122;13.606;2023-06-04T06:12:42;100583.47;;;22.83;29.95
68656;BME280;55638;51.122;13.606;2023-06-04T06:14:14;100577.94;;;23.05;29.61
68656;BME280;55638;51.122;13.606;2023-06-04T06:15:46;100581.66;;;23.25;29.72
68656;BME280;55638;51.122;13.606;2023-06-04T06:17:20;100583.47;;;23.46;29.24
68656;BME280;55638;51.122;13.606;2023-06-04T06:18:52;100584.63;;;23.65;27.24
68656;BME280;55638;51.122;13.606;2023-06-04T06:20:24;100580.25;;;23.84;28.90
68656;BME280;55638;51.122;13.606;2023-06-04T06:21:56;100585.59;;;23.99;25.88
68656;BME280;55638;51.122;13.606;2023-06-04T06:23:31;100587.78;;;24.17;27.91
68656;BME280;55638;51.122;13.606;2023-06-04T06:25:03;100587.41;;;24.33;28.48
68656;BME280;55638;51.122;13.606;2023-06-04T06:26:40;100593.78;;;24.47;27.40
68656;BME280;55638;51.122;13.606;2023-06-04T06:28:14;100585.53;;;24.60;25.74
68656;BME280;55638;51.122;13.606;2023-06-04T06:29:48;100598.28;;;24.74;28.17
68656;BME280;55638;51.122;13.606;2023-06-04T06:31:20;100598.72;;;24.85;27.62
68656;BME280;55638;51.122;13.606;2023-06-04T06:32:52;100601.03;;;24.94;27.54
68656;BME280;55638;51.122;13.606;2023-06-04T06:34:27;100599.53;;;25.05;25.46
68656;BME280;55638;51.122;13.606;2023-06-04T06:35:59;100599.31;;;25.13;26.07
68656;BME280;55638;51.122;13.606;2023-06-04T06:37:33;100606.97;;;25.24;26.64
68656;BME280;55638;51.122;13.606;2023-06-04T06:39:05;100595.47;;;25.34;25.67
68656;BME280;55638;51.122;13.606;2023-06-04T06:40:37;100596.72;;;25.45;26.79
68656;BME280;55638;51.122;13.606;2023-06-04T06:42:09;100604.75;;;25.53;24.34
68656;BME280;55638;51.122;13.606;2023-06-04T06:43:44;100606.63;;;25.66;27.21
68656;BME280;55638;51.122;13.606;2023-06-04T06:45:19;100592.56;;;25.74;27.16
68656;BME280;55638;51.122;13.606;2023-06-04T06:46:51;100598.09;;;25.81;26.09
68656;BME280;55638;51.122;13.606;2023-06-04T06:48:23;100597.00;;;25.88;26.81
68656;BME280;55638;51.122;13.606;2023-06-04T06:49:55;100594.22;;;25.95;26.27
68656;BME280;55638;51.122;13.606;2023-06-04T06:51:27;100594.38;;;26.00;26.35
68656;BME280;55638;51.122;13.606;2023-06-04T06:52:58;100592.91;;;26.04;25.38
68656;BME280;55638;51.122;13.606;2023-06-04T06:54:30;100599.44;;;26.10;26.13
68656;BME280;55638;51.122;13.606;2023-06-04T06:56:02;100598.78;;;26.14;26.56
68656;BME280;55638;51.122;13.606;2023-06-04T06:57:34;100598.94;;;26.19;25.12
68656;BME280;55638;51.122;13.606;2023-06-04T06:59:06;100598.69;;;26.28;25.53
68656;BME280;55638;51.122;13.606;2023-06-04T07:00:38;100597.00;;;26.33;26.17
68656;BME280;55638;51.122;13.606;2023-06-04T07:02:10;100600.97;;;26.44;26.60
68656;BME280;55638;51.122;13.606;2023-06-04T07:03:42;100603.44;;;26.52;26.34
68656;BME280;55638;51.122;13.606;2023-06-04T07:05:14;100598.72;;;26.59;25.77
68656;BME280;55638;51.122;13.606;2023-06-04T07:06:48;100595.66;;;26.67;25.16
68656;BME280;55638;51.122;13.606;2023-06-04T07:08:20;100594.31;;;26.77;25.94
68656;BME280;55638;51.122;13.606;2023-06-04T07:09:52;100592.34;;;26.84;24.60
68656;BME280;55638;51.122;13.606;2023-06-04T07:11:24;100591.00;;;26.93;25.08
68656;BME280;55638;51.122;13.606;2023-06-04T07:12:57;100594.09;;;27.03;25.81
68656;BME280;55638;51.122;13.606;2023-06-04T07:14:29;100591.91;;;27.12;25.13
68656;BME280;55638;51.122;13.606;2023-06-04T07:16:01;100604.97;;;27.23;24.81
68656;BME280;55638;51.122;13.606;2023-06-04T07:17:32;100598.91;;;27.33;25.22
68656;BME280;55638;51.122;13.606;2023-06-04T07:19:04;100604.78;;;27.43;25.64
68656;BME280;55638;51.122;13.606;2023-06-04T07:20:36;100606.78;;;27.54;25.75
68656;BME280;55638;51.122;13.606;2023-06-04T07:22:08;100602.63;;;27.64;25.40
68656;BME280;55638;51.122;13.606;2023-06-04T07:23:40;100602.31;;;27.72;25.40
68656;BME280;55638;51.122;13.606;2023-06-04T07:25:12;100605.84;;;27.79;22.97
68656;BME280;55638;51.122;13.606;2023-06-04T07:26:43;100600.00;;;27.87;24.91
68656;BME280;55638;51.122;13.606;2023-06-04T07:28:15;100593.53;;;27.93;24.59
68656;BME280;55638;51.122;13.606;2023-06-04T07:29:47;100601.16;;;27.98;24.66
68656;BME280;55638;51.122;13.606;2023-06-04T07:31:19;100598.53;;;28.03;24.37
68656;BME280;55638;51.122;13.606;2023-06-04T07:32:51;100600.59;;;28.08;22.41
68656;BME280;55638;51.122;13.606;2023-06-04T07:34:23;100592.91;;;28.10;23.06
68656;BME280;55638;51.122;13.606;2023-06-04T07:35:55;100591.59;;;28.12;22.86
68656;BME280;55638;51.122;13.606;2023-06-04T07:37:27;100597.72;;;28.14;23.65
68656;BME280;55638;51.122;13.606;2023-06-04T07:38:59;100598.97;;;28.18;24.34
68656;BME280;55638;51.122;13.606;2023-06-04T07:40:31;100597.03;;;28.19;23.62
68656;BME280;55638;51.122;13.606;2023-06-04T07:42:04;100601.50;;;28.20;23.54
68656;BME280;55638;51.122;13.606;2023-06-04T07:43:36;100597.63;;;28.21;23.23
68656;BME280;55638;51.122;13.606;2023-06-04T07:45:08;100598.25;;;28.23;23.52
68656;BME280;55638;51.122;13.606;2023-06-04T07:46:40;100601.03;;;28.23;22.20
68656;BME280;55638;51.122;13.606;2023-06-04T07:48:12;100597.78;;;28.26;22.41
68656;BME280;55638;51.122;13.606;2023-06-04T07:49:44;100595.38;;;28.30;22.40
68656;BME280;55638;51.122;13.606;2023-06-04T07:51:32;100594.91;;;28.33;22.90
68656;BME280;55638;51.122;13.606;2023-06-04T07:53:04;100593.81;;;28.34;22.12
68656;BME280;55638;51.122;13.606;2023-06-04T07:54:36;100598.03;;;28.36;21.45
68656;BME280;55638;51.122;13.606;2023-06-04T07:56:08;100599.50;;;28.39;22.53
68656;BME280;55638;51.122;13.606;2023-06-04T07:57:40;100595.91;;;28.38;21.63
68656;BME280;55638;51.122;13.606;2023-06-04T07:59:11;100597.09;;;28.42;21.87
68656;BME280;55638;51.122;13.606;2023-06-04T08:00:43;100596.63;;;28.45;21.34
68656;BME280;55638;51.122;13.606;2023-06-04T08:02:15;100600.50;;;28.44;21.43
68656;BME280;55638;51.122;13.606;2023-06-04T08:03:47;100593.25;;;28.43;21.72
68656;BME280;55638;51.122;13.606;2023-06-04T08:05:19;100596.72;;;28.39;20.27
68656;BME280;55638;51.122;13.606;2023-06-04T08:06:51;100589.97;;;28.35;20.81